createdAt,value
2023-03-29T00:00:21.802Z,1.08
2023-03-29T00:01:36.007Z,1.12
2023-03-29T00:02:39.073Z,1.06
2023-03-29T00:03:44.291Z,1.11
2023-03-29T00:04:47.015Z,1.14
2023-03-29T00:05:49.101Z,1.08
2023-03-29T00:06:51.813Z,1.08
2023-03-29T00:08:01.808Z,1.03
2023-03-29T00:09:05.881Z,1.00
2023-03-29T00:10:10.129Z,0.95
2023-03-29T00:11:12.607Z,0.96
2023-03-29T00:12:15.456Z,0.94
2023-03-29T00:13:18.257Z,0.91
2023-03-29T00:14:20.454Z,0.88
2023-03-29T00:15:22.849Z,0.85
2023-03-29T00:16:24.993Z,0.87
2023-03-29T00:17:27.209Z,0.84
2023-03-29T00:18:29.368Z,0.84
2023-03-29T00:19:35.686Z,0.87
2023-03-29T00:20:37.917Z,0.81
2023-03-29T00:21:40.127Z,0.80
2023-03-29T00:22:43.232Z,0.76
2023-03-29T00:23:45.753Z,0.79
2023-03-29T00:24:49.208Z,0.75
2023-03-29T00:25:53.976Z,0.76
2023-03-29T00:26:56.078Z,0.73
2023-03-29T00:27:58.169Z,0.70
2023-03-29T00:29:00.254Z,0.68
2023-03-29T00:30:04.145Z,0.64
2023-03-29T00:31:12.338Z,0.62
2023-03-29T00:32:15.498Z,0.55
2023-03-29T00:33:20.489Z,0.56
2023-03-29T00:34:26.643Z,0.56
2023-03-29T00:35:28.820Z,0.52
2023-03-29T00:36:31.688Z,0.55
2023-03-29T00:37:33.859Z,0.55
2023-03-29T00:38:36.215Z,0.58
2023-03-29T00:39:42.029Z,0.57
2023-03-29T00:40:47.057Z,0.50
2023-03-29T00:41:50.257Z,0.46
2023-03-29T00:42:52.406Z,0.38
2023-03-29T00:44:03.308Z,0.39
2023-03-29T00:45:13.721Z,0.35
2023-03-29T00:46:15.862Z,0.30
2023-03-29T00:47:21.446Z,0.26
2023-03-29T00:48:27.244Z,0.20
2023-03-29T00:49:29.565Z,0.16
2023-03-29T00:50:38.028Z,0.10
2023-03-29T00:51:41.528Z,0.10
2023-03-29T00:52:48.663Z,0.03
2023-03-29T00:53:53.847Z,-0.01
2023-03-29T00:54:59.044Z,0.02
2023-03-29T00:56:14.210Z,0.02
2023-03-29T00:57:17.404Z,0.05
2023-03-29T00:58:31.408Z,0.02
2023-03-29T00:59:35.520Z,0.02
2023-03-29T01:00:42.219Z,0.12
2023-03-29T01:01:54.285Z,0.19
2023-03-29T01:02:59.828Z,0.18
2023-03-29T01:04:09.939Z,0.16
2023-03-29T01:05:35.346Z,0.12
2023-03-29T01:06:39.532Z,0.11
2023-03-29T01:08:06.741Z,0.17
2023-03-29T01:09:10.413Z,0.21
2023-03-29T01:10:22.746Z,0.23
2023-03-29T01:11:34.553Z,0.27
2023-03-29T01:12:41.335Z,0.24
2023-03-29T01:13:47.734Z,0.20
2023-03-29T01:14:59.917Z,0.22
2023-03-29T01:16:02.847Z,0.22
2023-03-29T01:17:05.839Z,0.18
2023-03-29T01:18:08.886Z,0.18
2023-03-29T01:19:14.072Z,0.19
2023-03-29T01:20:28.415Z,0.22
2023-03-29T01:21:39.771Z,0.20
2023-03-29T01:22:51.478Z,0.23
2023-03-29T01:24:07.024Z,0.20
2023-03-29T01:25:12.533Z,0.21
2023-03-29T01:27:01.990Z,0.20
2023-03-29T01:28:07.505Z,0.20
2023-03-29T01:29:17.751Z,0.24
2023-03-29T01:30:26.228Z,0.25
2023-03-29T01:31:37.524Z,0.25
2023-03-29T01:32:42.561Z,0.22
2023-03-29T01:33:49.052Z,0.21
2023-03-29T01:35:02.182Z,0.23
2023-03-29T01:36:14.463Z,0.22
2023-03-29T01:37:27.893Z,0.25
2023-03-29T01:38:49.833Z,0.19
2023-03-29T01:39:52.877Z,0.16
2023-03-29T01:40:54.984Z,0.16
2023-03-29T01:42:11.955Z,0.15
2023-03-29T01:43:22.631Z,0.15
2023-03-29T01:44:32.042Z,0.17
2023-03-29T01:45:47.061Z,0.17
2023-03-29T01:46:54.935Z,0.14
2023-03-29T01:48:17.376Z,0.13
2023-03-29T01:49:28.300Z,0.08
2023-03-29T01:50:42.443Z,0.09
2023-03-29T01:51:49.808Z,0.10
2023-03-29T01:52:59.398Z,0.07
2023-03-29T01:54:03.511Z,0.06
2023-03-29T01:55:11.626Z,0.09
2023-03-29T01:56:17.151Z,0.11
2023-03-29T01:57:20.016Z,0.08
2023-03-29T01:58:24.413Z,0.04
2023-03-29T01:59:29.476Z,0.03
2023-03-29T02:00:32.845Z,0.00
2023-03-29T02:01:39.000Z,-0.07
2023-03-29T02:02:42.589Z,-0.06
2023-03-29T02:03:49.887Z,-0.01
2023-03-29T02:04:54.134Z,0.08
2023-03-29T02:05:57.425Z,0.05
2023-03-29T02:07:00.691Z,0.07
2023-03-29T02:08:05.407Z,0.00
2023-03-29T02:09:07.696Z,-0.02
2023-03-29T02:10:11.629Z,-0.10
2023-03-29T02:11:14.158Z,-0.12
2023-03-29T02:12:17.187Z,-0.15
2023-03-29T02:13:19.842Z,-0.18
2023-03-29T02:14:22.034Z,-0.16
2023-03-29T02:15:24.358Z,-0.17
2023-03-29T02:16:26.666Z,-0.06
2023-03-29T02:17:28.954Z,-0.06
2023-03-29T02:18:31.409Z,-0.12
2023-03-29T02:19:34.404Z,-0.07
2023-03-29T02:20:39.172Z,-0.11
2023-03-29T02:21:44.257Z,-0.09
2023-03-29T02:23:09.805Z,-0.16
2023-03-29T02:24:13.382Z,-0.27
2023-03-29T02:25:16.222Z,-0.32
2023-03-29T02:26:19.607Z,-0.37
2023-03-29T02:27:21.956Z,-0.38
2023-03-29T02:28:24.825Z,-0.41
2023-03-29T02:29:27.395Z,-0.45
2023-03-29T02:30:39.137Z,-0.48
2023-03-29T02:31:44.930Z,-0.44
2023-03-29T02:33:02.234Z,-0.48
2023-03-29T02:34:11.522Z,-0.54
2023-03-29T02:35:18.232Z,-0.54
2023-03-29T02:36:29.540Z,-0.57
2023-03-29T02:37:31.593Z,-0.62
2023-03-29T02:38:34.236Z,-0.64
2023-03-29T02:39:36.520Z,-0.56
2023-03-29T02:40:39.451Z,-0.57
2023-03-29T02:41:44.423Z,-0.54
2023-03-29T02:42:46.511Z,-0.38
2023-03-29T02:43:49.121Z,-0.32
2023-03-29T02:44:53.797Z,-0.34
2023-03-29T02:45:56.123Z,-0.30
2023-03-29T02:47:02.286Z,-0.32
2023-03-29T02:48:08.439Z,-0.33
2023-03-29T02:49:11.151Z,-0.36
2023-03-29T02:50:13.401Z,-0.36
2023-03-29T02:51:20.270Z,-0.37
2023-03-29T02:52:25.893Z,-0.34
2023-03-29T02:53:32.433Z,-0.38
2023-03-29T02:54:34.686Z,-0.36
2023-03-29T02:55:39.017Z,-0.32
2023-03-29T02:56:47.753Z,-0.36
2023-03-29T02:57:49.938Z,-0.35
2023-03-29T02:58:52.054Z,-0.38
2023-03-29T02:59:55.424Z,-0.38
2023-03-29T03:00:59.309Z,-0.31
2023-03-29T03:02:01.835Z,-0.24
2023-03-29T03:03:08.094Z,-0.21
2023-03-29T03:04:11.610Z,-0.21
2023-03-29T03:05:13.824Z,-0.20
2023-03-29T03:06:16.322Z,-0.20
2023-03-29T03:07:20.013Z,-0.24
2023-03-29T03:08:22.142Z,-0.25
2023-03-29T03:09:24.310Z,-0.22
2023-03-29T03:10:26.457Z,-0.23
2023-03-29T03:11:28.620Z,-0.21
2023-03-29T03:12:31.035Z,-0.24
2023-03-29T03:13:33.213Z,-0.25
2023-03-29T03:14:35.339Z,-0.30
2023-03-29T03:15:38.820Z,-0.26
2023-03-29T03:16:41.121Z,-0.28
2023-03-29T03:17:46.602Z,-0.29
2023-03-29T03:18:50.924Z,-0.36
2023-03-29T03:19:53.293Z,-0.39
2023-03-29T03:20:57.215Z,-0.37
2023-03-29T03:21:59.772Z,-0.33
2023-03-29T03:23:03.435Z,-0.30
2023-03-29T03:24:07.696Z,-0.34
2023-03-29T03:25:13.173Z,-0.32
2023-03-29T03:26:16.551Z,-0.31
2023-03-29T03:27:18.721Z,-0.33
2023-03-29T03:28:22.103Z,-0.31
2023-03-29T03:29:25.592Z,-0.33
2023-03-29T03:30:28.870Z,-0.39
2023-03-29T03:31:31.189Z,-0.36
2023-03-29T03:32:36.524Z,-0.41
2023-03-29T03:33:38.843Z,-0.43
2023-03-29T03:34:41.015Z,-0.45
2023-03-29T03:35:46.361Z,-0.43
2023-03-29T03:36:48.567Z,-0.46
2023-03-29T03:37:50.789Z,-0.49
2023-03-29T03:38:53.259Z,-0.53
2023-03-29T03:39:55.376Z,-0.50
2023-03-29T03:40:58.217Z,-0.51
2023-03-29T03:42:00.402Z,-0.56
2023-03-29T03:43:02.609Z,-0.55
2023-03-29T03:44:04.882Z,-0.51
2023-03-29T03:45:08.558Z,-0.53
2023-03-29T03:46:10.755Z,-0.49
2023-03-29T03:47:14.753Z,-0.54
2023-03-29T03:48:17.689Z,-0.53
2023-03-29T03:49:21.046Z,-0.55
2023-03-29T03:50:24.380Z,-0.50
2023-03-29T03:51:27.200Z,-0.51
2023-03-29T03:52:29.478Z,-0.54
2023-03-29T03:53:31.588Z,-0.53
2023-03-29T03:54:34.087Z,-0.56
2023-03-29T03:55:36.236Z,-0.56
2023-03-29T03:56:38.415Z,-0.58
2023-03-29T03:57:40.620Z,-0.60
2023-03-29T03:58:42.758Z,-0.65
2023-03-29T03:59:44.872Z,-0.62
2023-03-29T04:00:50.753Z,-0.64
2023-03-29T04:01:52.960Z,-0.61
2023-03-29T04:02:56.359Z,-0.61
2023-03-29T04:03:58.760Z,-0.60
2023-03-29T04:05:03.355Z,-0.63
2023-03-29T04:06:05.986Z,-0.66
2023-03-29T04:07:08.506Z,-0.66
2023-03-29T04:08:13.587Z,-0.63
2023-03-29T04:09:15.736Z,-0.64
2023-03-29T04:10:18.068Z,-0.57
2023-03-29T04:11:20.204Z,-0.59
2023-03-29T04:12:22.302Z,-0.60
2023-03-29T04:13:25.660Z,-0.66
2023-03-29T04:14:28.222Z,-0.69
2023-03-29T04:15:31.548Z,-0.72
2023-03-29T04:16:33.704Z,-0.76
2023-03-29T04:17:36.221Z,-0.78
2023-03-29T04:18:38.481Z,-0.82
2023-03-29T04:19:40.857Z,-0.83
2023-03-29T04:20:43.991Z,-0.86
2023-03-29T04:21:47.641Z,-0.89
2023-03-29T04:22:50.470Z,-0.87
2023-03-29T04:23:52.688Z,-0.90
2023-03-29T04:24:55.217Z,-0.91
2023-03-29T04:25:57.381Z,-0.93
2023-03-29T04:26:59.480Z,-0.93
2023-03-29T04:28:01.974Z,-0.97
2023-03-29T04:29:04.970Z,-0.95
2023-03-29T04:30:08.153Z,-0.95
2023-03-29T04:31:12.164Z,-0.95
2023-03-29T04:32:14.295Z,-0.93
2023-03-29T04:33:16.456Z,-0.92
2023-03-29T04:34:18.549Z,-0.91
2023-03-29T04:36:23.052Z,-0.94
2023-03-29T04:37:25.186Z,-0.90
2023-03-29T04:38:27.286Z,-0.84
2023-03-29T04:39:34.060Z,-0.84
2023-03-29T04:40:36.467Z,-0.81
2023-03-29T04:41:39.179Z,-0.72
2023-03-29T04:42:45.882Z,-0.69
2023-03-29T04:43:48.106Z,-0.68
2023-03-29T04:44:50.263Z,-0.64
2023-03-29T04:45:52.488Z,-0.60
2023-03-29T04:46:54.712Z,-0.55
2023-03-29T04:47:59.662Z,-0.52
2023-03-29T04:49:01.711Z,-0.47
2023-03-29T04:50:04.084Z,-0.44
2023-03-29T04:51:06.374Z,-0.37
2023-03-29T04:52:09.184Z,-0.35
2023-03-29T04:53:11.602Z,-0.33
2023-03-29T04:54:13.696Z,-0.23
2023-03-29T04:55:15.866Z,-0.18
2023-03-29T04:56:18.029Z,-0.10
2023-03-29T04:57:20.155Z,-0.04
2023-03-29T04:58:24.408Z,0.04
2023-03-29T04:59:28.269Z,0.13
2023-03-29T05:00:31.612Z,0.20
2023-03-29T05:01:33.766Z,0.26
2023-03-29T05:02:36.807Z,0.37
2023-03-29T05:03:39.025Z,0.41
2023-03-29T05:04:41.169Z,0.45
2023-03-29T05:05:43.626Z,0.59
2023-03-29T05:06:45.762Z,0.69
2023-03-29T05:07:48.071Z,0.74
2023-03-29T05:08:50.280Z,0.80
2023-03-29T05:09:52.803Z,0.82
2023-03-29T05:10:54.937Z,0.83
2023-03-29T05:11:57.068Z,0.85
2023-03-29T05:12:59.404Z,0.91
2023-03-29T05:14:03.427Z,0.96
2023-03-29T05:15:06.190Z,1.00
2023-03-29T05:16:08.912Z,1.04
2023-03-29T05:17:11.036Z,1.12
2023-03-29T05:18:13.521Z,1.13
2023-03-29T05:19:15.817Z,1.15
2023-03-29T05:20:18.097Z,1.14
2023-03-29T05:21:20.617Z,1.17
2023-03-29T05:22:23.499Z,1.21
2023-03-29T05:23:26.065Z,1.30
2023-03-29T05:24:28.187Z,1.33
2023-03-29T05:25:30.348Z,1.38
2023-03-29T05:26:32.506Z,1.48
2023-03-29T05:27:34.967Z,1.48
2023-03-29T05:28:37.101Z,1.53
2023-03-29T05:29:39.276Z,1.57
2023-03-29T05:30:41.566Z,1.56
2023-03-29T05:31:43.885Z,1.62
2023-03-29T05:32:46.952Z,1.66
2023-03-29T05:33:49.842Z,1.68
2023-03-29T05:34:52.938Z,1.73
2023-03-29T05:36:02.154Z,1.82
2023-03-29T05:37:04.460Z,1.90
2023-03-29T05:38:06.745Z,1.92
2023-03-29T05:39:10.947Z,1.96
2023-03-29T05:40:13.481Z,1.96
2023-03-29T05:41:16.342Z,2.07
2023-03-29T05:42:22.404Z,2.01
2023-03-29T05:43:24.569Z,1.99
2023-03-29T05:44:26.937Z,2.04
2023-03-29T05:45:29.900Z,2.09
2023-03-29T05:46:32.145Z,2.15
2023-03-29T05:47:34.306Z,2.17
2023-03-29T05:48:36.565Z,2.22
2023-03-29T05:49:38.724Z,2.23
2023-03-29T05:50:40.827Z,2.30
2023-03-29T05:51:45.729Z,2.30
2023-03-29T05:52:47.905Z,2.29
2023-03-29T05:53:51.347Z,2.24
2023-03-29T05:54:53.476Z,2.35
2023-03-29T05:55:56.099Z,2.34
2023-03-29T05:56:58.311Z,2.39
2023-03-29T05:58:01.147Z,2.39
2023-03-29T05:59:03.284Z,2.43
2023-03-29T06:00:25.748Z,2.42
2023-03-29T06:01:28.617Z,2.43
2023-03-29T06:02:31.556Z,2.55
2023-03-29T06:03:34.033Z,2.63
2023-03-29T06:04:36.666Z,2.67
2023-03-29T06:05:39.330Z,2.76
2023-03-29T06:06:42.103Z,2.83
2023-03-29T06:07:44.301Z,2.95
2023-03-29T06:08:46.486Z,2.87
2023-03-29T06:09:48.588Z,2.78
2023-03-29T06:10:51.900Z,2.75
2023-03-29T06:11:56.448Z,2.77
2023-03-29T06:12:59.149Z,2.76
2023-03-29T06:14:02.508Z,2.76
2023-03-29T06:15:05.543Z,2.79
2023-03-29T06:16:09.284Z,2.89
2023-03-29T06:17:11.456Z,3.00
2023-03-29T06:18:13.667Z,3.05
2023-03-29T06:19:16.070Z,3.14
2023-03-29T06:20:18.540Z,3.20
2023-03-29T06:21:21.162Z,3.22
2023-03-29T06:22:23.609Z,3.21
2023-03-29T06:23:25.979Z,3.27
2023-03-29T06:24:28.244Z,3.27
2023-03-29T06:25:30.377Z,3.31
2023-03-29T06:26:32.508Z,3.38
2023-03-29T06:27:34.935Z,3.33
2023-03-29T06:28:37.286Z,3.38
2023-03-29T06:29:39.549Z,3.45
2023-03-29T06:30:42.246Z,3.49
2023-03-29T06:31:45.454Z,3.36
2023-03-29T06:32:49.655Z,3.37
2023-03-29T06:33:51.861Z,3.50
2023-03-29T06:34:54.527Z,3.59
2023-03-29T06:35:57.469Z,3.72
2023-03-29T06:36:59.647Z,3.80
2023-03-29T06:38:03.243Z,3.77
2023-03-29T06:39:08.766Z,3.61
2023-03-29T06:40:11.315Z,3.57
2023-03-29T06:41:13.654Z,3.57
2023-03-29T06:42:21.122Z,3.49
2023-03-29T06:43:23.855Z,3.66
2023-03-29T06:44:28.407Z,3.78
2023-03-29T06:45:36.322Z,3.92
2023-03-29T06:46:38.513Z,3.94
2023-03-29T06:47:41.075Z,4.04
2023-03-29T06:48:43.295Z,4.05
2023-03-29T06:49:45.577Z,4.08
2023-03-29T06:50:48.603Z,3.98
2023-03-29T06:51:50.709Z,3.89
2023-03-29T06:52:52.974Z,3.90
2023-03-29T06:53:55.186Z,3.95
2023-03-29T06:54:57.378Z,4.08
2023-03-29T06:55:59.823Z,4.08
2023-03-29T06:57:02.706Z,4.09
2023-03-29T06:58:04.924Z,4.11
2023-03-29T06:59:07.089Z,4.28
2023-03-29T07:00:27.866Z,4.47
2023-03-29T07:01:30.169Z,4.51
2023-03-29T07:02:32.375Z,4.38
2023-03-29T07:03:36.043Z,4.32
2023-03-29T07:04:38.816Z,4.27
2023-03-29T07:05:41.749Z,4.33
2023-03-29T07:06:48.494Z,4.48
2023-03-29T07:07:55.118Z,4.55
2023-03-29T07:08:59.844Z,4.49
2023-03-29T07:10:01.948Z,4.60
2023-03-29T07:11:04.555Z,4.69
2023-03-29T07:12:07.090Z,4.87
2023-03-29T07:13:13.913Z,4.93
2023-03-29T07:14:17.836Z,4.71
2023-03-29T07:15:21.488Z,4.78
2023-03-29T07:16:23.698Z,4.76
2023-03-29T07:17:25.910Z,4.53
2023-03-29T07:18:27.996Z,4.52
2023-03-29T07:19:30.448Z,4.53
2023-03-29T07:20:33.811Z,4.55
2023-03-29T07:21:37.837Z,4.60
2023-03-29T07:22:44.124Z,4.54
2023-03-29T07:23:46.203Z,4.59
2023-03-29T07:24:49.368Z,4.58
2023-03-29T07:25:51.557Z,4.61
2023-03-29T07:27:03.214Z,4.68
2023-03-29T07:28:06.821Z,4.81
2023-03-29T07:29:09.409Z,4.87
2023-03-29T07:30:16.560Z,4.92
2023-03-29T07:31:18.745Z,4.86
2023-03-29T07:32:21.439Z,4.93
2023-03-29T07:33:24.329Z,4.99
2023-03-29T07:34:27.269Z,4.93
2023-03-29T07:35:30.863Z,5.01
2023-03-29T07:36:34.412Z,4.95
2023-03-29T07:37:37.535Z,5.00
2023-03-29T07:38:39.681Z,4.94
2023-03-29T07:39:41.829Z,4.91
2023-03-29T07:40:44.008Z,5.03
2023-03-29T07:41:46.145Z,5.09
2023-03-29T07:42:52.598Z,5.24
2023-03-29T07:43:55.891Z,5.42
2023-03-29T07:44:58.651Z,5.56
2023-03-29T07:46:02.116Z,5.63
2023-03-29T07:47:05.539Z,5.81
2023-03-29T07:48:08.593Z,5.89
2023-03-29T07:49:10.759Z,5.90
2023-03-29T07:50:14.481Z,5.89
2023-03-29T07:51:16.980Z,6.11
2023-03-29T07:52:19.156Z,6.14
2023-03-29T07:53:21.773Z,5.96
2023-03-29T07:54:24.154Z,5.92
2023-03-29T07:55:26.685Z,5.90
2023-03-29T07:56:28.829Z,5.99
2023-03-29T07:57:31.000Z,6.11
2023-03-29T07:58:33.268Z,6.22
2023-03-29T07:59:35.471Z,5.74
2023-03-29T08:00:38.227Z,6.00
2023-03-29T08:01:41.271Z,6.29
2023-03-29T08:02:44.769Z,6.42
2023-03-29T08:03:47.357Z,6.48
2023-03-29T08:04:49.748Z,6.32
2023-03-29T08:05:52.070Z,6.33
2023-03-29T08:06:55.520Z,5.92
2023-03-29T08:07:57.702Z,6.03
2023-03-29T08:09:00.186Z,6.13
2023-03-29T08:10:03.284Z,6.17
2023-03-29T08:11:08.878Z,6.10
2023-03-29T08:12:11.168Z,6.08
2023-03-29T08:13:13.492Z,6.24
2023-03-29T08:14:15.635Z,6.40
2023-03-29T08:15:17.956Z,6.45
2023-03-29T08:16:20.075Z,6.31
2023-03-29T08:17:22.210Z,6.22
2023-03-29T08:18:24.328Z,6.29
2023-03-29T08:19:27.174Z,6.36
2023-03-29T08:20:29.457Z,6.32
2023-03-29T08:21:31.797Z,6.26
2023-03-29T08:22:34.570Z,6.33
2023-03-29T08:23:36.699Z,6.44
2023-03-29T08:24:38.829Z,6.71
2023-03-29T08:25:41.452Z,6.96
2023-03-29T08:26:43.597Z,6.91
2023-03-29T08:27:45.719Z,6.98
2023-03-29T08:28:47.866Z,6.97
2023-03-29T08:29:49.985Z,6.68
2023-03-29T08:30:52.850Z,6.75
2023-03-29T08:31:56.446Z,6.96
2023-03-29T08:32:58.650Z,7.26
2023-03-29T08:34:00.796Z,7.53
2023-03-29T08:35:04.941Z,7.48
2023-03-29T08:36:07.379Z,7.53
2023-03-29T08:37:09.850Z,7.80
2023-03-29T08:38:12.596Z,7.69
2023-03-29T08:39:15.221Z,7.71
2023-03-29T08:40:22.063Z,8.00
2023-03-29T08:41:49.743Z,8.49
2023-03-29T08:43:17.757Z,9.18
2023-03-29T08:44:20.561Z,9.59
2023-03-29T08:45:27.834Z,9.55
2023-03-29T08:46:37.790Z,9.30
2023-03-29T08:48:07.625Z,8.67
2023-03-29T08:49:11.066Z,9.03
2023-03-29T08:50:14.132Z,9.27
2023-03-29T08:51:25.309Z,9.88
2023-03-29T08:52:27.409Z,10.09
2023-03-29T08:53:34.062Z,10.33
2023-03-29T08:54:45.835Z,10.78
2023-03-29T08:55:49.148Z,10.93
2023-03-29T08:56:52.906Z,10.34
2023-03-29T08:57:55.889Z,10.87
2023-03-29T08:58:58.586Z,10.17
2023-03-29T09:00:04.593Z,9.96
2023-03-29T09:01:09.315Z,9.77
2023-03-29T09:02:15.119Z,10.14
2023-03-29T09:03:27.276Z,9.82
2023-03-29T09:04:33.163Z,10.18
2023-03-29T09:05:38.858Z,10.44
2023-03-29T09:06:41.127Z,10.53
2023-03-29T09:07:43.278Z,9.79
2023-03-29T09:08:47.610Z,10.26
2023-03-29T09:09:50.302Z,10.69
2023-03-29T09:11:01.711Z,10.64
2023-03-29T09:12:22.642Z,10.80
2023-03-29T09:13:34.831Z,9.92
2023-03-29T09:14:48.664Z,10.80
2023-03-29T09:16:13.872Z,11.66
2023-03-29T09:17:39.513Z,11.41
2023-03-29T09:18:47.519Z,10.68
2023-03-29T09:20:03.280Z,10.57
2023-03-29T09:21:44.059Z,10.60
2023-03-29T09:22:58.085Z,11.09
2023-03-29T09:24:32.568Z,11.16
2023-03-29T09:25:56.590Z,11.84
2023-03-29T09:27:08.620Z,11.36
2023-03-29T09:28:10.687Z,11.34
2023-03-29T09:29:37.454Z,11.33
2023-03-29T09:30:49.429Z,11.25
2023-03-29T09:31:52.991Z,11.24
2023-03-29T09:33:10.298Z,11.04
2023-03-29T09:34:23.018Z,10.92
2023-03-29T09:35:29.118Z,10.31
2023-03-29T09:36:40.625Z,10.23
2023-03-29T09:37:42.818Z,10.09
2023-03-29T09:38:48.103Z,9.72
2023-03-29T09:39:53.146Z,9.66
2023-03-29T09:40:58.100Z,9.53
2023-03-29T09:42:05.202Z,10.10
2023-03-29T09:43:13.065Z,10.63
2023-03-29T09:44:30.228Z,10.49
2023-03-29T09:45:33.458Z,10.69
2023-03-29T09:46:50.940Z,11.22
2023-03-29T09:47:57.709Z,11.45
2023-03-29T09:49:01.535Z,11.45
2023-03-29T09:50:27.693Z,11.98
2023-03-29T09:51:33.195Z,11.82
2023-03-29T09:52:35.490Z,11.87
2023-03-29T09:53:37.619Z,10.78
2023-03-29T09:54:40.064Z,11.10
2023-03-29T09:55:43.255Z,11.42
2023-03-29T09:56:45.554Z,11.99
2023-03-29T09:57:47.735Z,12.13
2023-03-29T09:58:49.959Z,11.91
2023-03-29T09:59:52.688Z,11.78
2023-03-29T10:00:59.101Z,12.16
2023-03-29T10:02:09.483Z,12.09
2023-03-29T10:03:23.112Z,12.24
2023-03-29T10:04:26.318Z,12.29
2023-03-29T10:05:31.845Z,12.31
2023-03-29T10:06:36.969Z,12.11
2023-03-29T10:07:44.796Z,11.55
2023-03-29T10:08:51.820Z,11.18
2023-03-29T10:09:56.016Z,11.76
2023-03-29T10:10:59.557Z,12.61
2023-03-29T10:12:03.249Z,13.24
2023-03-29T10:13:07.454Z,13.53
2023-03-29T10:14:16.822Z,13.40
2023-03-29T10:15:29.206Z,13.37
2023-03-29T10:16:38.874Z,12.61
2023-03-29T10:17:41.182Z,12.66
2023-03-29T10:18:43.747Z,12.84
2023-03-29T10:19:55.716Z,12.85
2023-03-29T10:21:00.178Z,13.09
2023-03-29T10:22:13.874Z,13.45
2023-03-29T10:23:18.535Z,12.75
2023-03-29T10:24:24.934Z,12.90
2023-03-29T10:25:30.517Z,13.26
2023-03-29T10:26:33.993Z,13.42
2023-03-29T10:27:36.294Z,13.21
2023-03-29T10:28:38.642Z,13.07
2023-03-29T10:29:42.431Z,12.91
2023-03-29T10:30:48.668Z,12.83
2023-03-29T10:31:51.990Z,13.18
2023-03-29T10:32:58.877Z,13.72
2023-03-29T10:34:03.727Z,14.34
2023-03-29T10:35:13.008Z,14.47
2023-03-29T10:36:15.511Z,14.07
2023-03-29T10:37:19.398Z,14.47
2023-03-29T10:38:23.395Z,14.48
2023-03-29T10:39:28.339Z,14.59
2023-03-29T10:40:51.778Z,14.58
2023-03-29T10:41:54.199Z,14.20
2023-03-29T10:43:01.306Z,14.09
2023-03-29T10:44:03.730Z,14.27
2023-03-29T10:45:29.585Z,14.54
2023-03-29T10:46:40.296Z,15.24
2023-03-29T10:47:44.966Z,14.62
2023-03-29T10:48:48.403Z,15.33
2023-03-29T10:49:57.125Z,15.37
2023-03-29T10:51:01.768Z,15.45
2023-03-29T10:52:06.758Z,15.50
2023-03-29T10:53:21.580Z,15.08
2023-03-29T10:54:24.484Z,13.96
2023-03-29T10:55:35.252Z,14.99
2023-03-29T10:56:52.782Z,15.29
2023-03-29T10:58:11.192Z,15.50
2023-03-29T10:59:23.440Z,15.71
2023-03-29T11:00:37.250Z,15.95
2023-03-29T11:01:57.106Z,16.38
2023-03-29T11:03:16.656Z,16.61
2023-03-29T11:04:34.455Z,17.10
2023-03-29T11:05:47.201Z,16.45
2023-03-29T11:07:14.341Z,16.11
2023-03-29T11:08:32.136Z,15.51
2023-03-29T11:09:47.821Z,15.62
2023-03-29T11:11:09.831Z,15.65
2023-03-29T11:12:38.493Z,15.78
2023-03-29T11:14:05.341Z,15.65
2023-03-29T11:15:25.479Z,16.61
2023-03-29T11:16:30.588Z,17.56
2023-03-29T11:17:59.717Z,18.15
2023-03-29T11:19:04.518Z,16.77
2023-03-29T11:20:15.972Z,16.51
2023-03-29T11:21:36.099Z,16.32
2023-03-29T11:23:17.248Z,16.82
2023-03-29T11:24:50.153Z,17.54
2023-03-29T11:26:13.607Z,17.29
2023-03-29T11:27:33.544Z,17.20
2023-03-29T11:28:53.028Z,17.57
2023-03-29T11:29:57.104Z,18.22
2023-03-29T11:31:17.592Z,18.36
2023-03-29T11:32:33.546Z,17.51
2023-03-29T11:34:00.360Z,16.33
2023-03-29T11:35:29.606Z,16.95
2023-03-29T11:36:50.655Z,16.61
2023-03-29T11:38:14.452Z,16.45
2023-03-29T11:39:42.702Z,16.17
2023-03-29T11:40:44.778Z,15.77
2023-03-29T11:41:50.259Z,15.96
2023-03-29T11:42:54.972Z,15.63
2023-03-29T11:44:02.635Z,15.60
2023-03-29T11:45:05.681Z,15.12
2023-03-29T11:46:21.840Z,13.88
2023-03-29T11:47:28.886Z,13.71
2023-03-29T11:48:51.359Z,13.34
2023-03-29T11:49:57.829Z,14.13
2023-03-29T11:51:23.478Z,15.11
2023-03-29T11:52:30.159Z,15.74
2023-03-29T11:53:44.788Z,15.84
2023-03-29T11:54:59.117Z,16.38
2023-03-29T11:56:11.826Z,16.47
2023-03-29T11:57:28.948Z,16.33
2023-03-29T11:58:38.275Z,16.56
2023-03-29T11:59:45.568Z,16.17
2023-03-29T12:00:57.973Z,16.76
2023-03-29T12:02:46.541Z,17.11
2023-03-29T12:03:56.397Z,16.84
2023-03-29T12:05:01.347Z,16.88
2023-03-29T12:06:13.224Z,17.31
2023-03-29T12:07:19.656Z,16.83
2023-03-29T12:08:41.968Z,16.44
2023-03-29T12:10:05.593Z,16.77
2023-03-29T12:11:23.333Z,16.93
2023-03-29T12:12:45.069Z,16.60
2023-03-29T12:14:04.410Z,16.59
2023-03-29T12:15:20.204Z,17.00
2023-03-29T12:16:32.422Z,17.01
2023-03-29T12:17:40.022Z,17.38
2023-03-29T12:18:47.018Z,17.23
2023-03-29T12:19:57.679Z,17.61
2023-03-29T12:21:02.416Z,17.14
2023-03-29T12:22:07.918Z,16.88
2023-03-29T12:23:13.453Z,16.87
2023-03-29T12:24:17.223Z,16.34
2023-03-29T12:25:24.536Z,16.39
2023-03-29T12:26:33.754Z,16.62
2023-03-29T12:27:52.473Z,16.75
2023-03-29T12:29:07.342Z,16.56
2023-03-29T12:30:54.964Z,17.31
2023-03-29T12:31:59.757Z,17.19
2023-03-29T12:33:07.435Z,17.14
2023-03-29T12:34:29.654Z,16.55
2023-03-29T12:36:05.950Z,16.58
2023-03-29T12:37:23.550Z,16.60
2023-03-29T12:38:29.347Z,17.07
2023-03-29T12:39:33.577Z,16.95
2023-03-29T12:40:41.869Z,17.53
2023-03-29T12:41:48.847Z,17.55
2023-03-29T12:42:58.750Z,17.83
2023-03-29T12:44:02.205Z,18.16
2023-03-29T12:45:04.572Z,17.41
2023-03-29T12:46:24.740Z,17.07
2023-03-29T12:47:32.363Z,16.85
2023-03-29T12:48:37.592Z,16.79
2023-03-29T12:49:39.870Z,16.34
2023-03-29T12:50:53.531Z,16.70
2023-03-29T12:51:57.684Z,16.78
2023-03-29T12:53:03.491Z,16.28
2023-03-29T12:54:07.704Z,16.28
2023-03-29T12:55:42.367Z,16.14
2023-03-29T12:56:55.064Z,16.03
2023-03-29T12:58:09.699Z,16.55
2023-03-29T12:59:25.797Z,15.99
2023-03-29T13:00:34.542Z,15.93
2023-03-29T13:01:39.441Z,16.26
2023-03-29T13:02:45.749Z,16.24
2023-03-29T13:03:58.069Z,16.10
2023-03-29T13:05:01.237Z,15.92
2023-03-29T13:06:06.350Z,15.88
2023-03-29T13:07:16.029Z,16.05
2023-03-29T13:08:33.681Z,16.29
2023-03-29T13:10:03.412Z,15.70
2023-03-29T13:11:06.520Z,15.84
2023-03-29T13:12:11.572Z,15.58
2023-03-29T13:13:24.310Z,15.24
2023-03-29T13:14:30.164Z,14.61
2023-03-29T13:15:33.899Z,14.55
2023-03-29T13:16:36.256Z,14.46
2023-03-29T13:18:15.486Z,14.88
2023-03-29T13:19:26.439Z,15.65
2023-03-29T13:20:47.897Z,16.31
2023-03-29T13:22:11.165Z,16.47
2023-03-29T13:23:41.951Z,16.36
2023-03-29T13:25:21.588Z,16.66
2023-03-29T13:26:29.737Z,16.17
2023-03-29T13:27:37.390Z,16.32
2023-03-29T13:29:21.467Z,16.69
2023-03-29T13:30:55.512Z,16.40
2023-03-29T13:32:27.596Z,15.89
2023-03-29T13:33:57.200Z,15.69
2023-03-29T13:35:14.839Z,15.10
2023-03-29T13:36:22.639Z,14.99
2023-03-29T13:37:37.417Z,14.53
2023-03-29T13:38:48.715Z,14.09
2023-03-29T13:39:53.086Z,14.12
2023-03-29T13:41:07.316Z,13.96
2023-03-29T13:42:23.863Z,14.02
2023-03-29T13:43:53.508Z,13.68
2023-03-29T13:45:08.969Z,12.91
2023-03-29T13:46:21.236Z,13.45
2023-03-29T13:47:32.756Z,14.38
2023-03-29T13:48:37.781Z,14.92
2023-03-29T13:49:43.117Z,15.81
2023-03-29T13:50:54.619Z,15.62
2023-03-29T13:52:28.513Z,16.16
2023-03-29T13:53:45.706Z,15.43
2023-03-29T13:55:08.672Z,16.44
2023-03-29T13:56:17.094Z,17.35
2023-03-29T13:57:22.088Z,17.56
2023-03-29T13:58:43.318Z,17.49
2023-03-29T13:59:53.946Z,17.45
2023-03-29T14:01:03.138Z,17.18
2023-03-29T14:02:06.534Z,17.03
2023-03-29T14:03:12.873Z,17.24
2023-03-29T14:04:20.272Z,17.44
2023-03-29T14:05:39.920Z,17.74
2023-03-29T14:06:42.924Z,17.76
2023-03-29T14:07:49.249Z,16.89
2023-03-29T14:08:51.852Z,16.26
2023-03-29T14:09:55.100Z,15.87
2023-03-29T14:11:01.201Z,16.35
2023-03-29T14:12:03.392Z,16.85
2023-03-29T14:13:05.554Z,17.05
2023-03-29T14:14:08.523Z,17.39
2023-03-29T14:15:23.901Z,17.24
2023-03-29T14:16:28.968Z,16.01
2023-03-29T14:17:31.741Z,16.03
2023-03-29T14:18:37.911Z,16.24
2023-03-29T14:19:40.267Z,16.10
2023-03-29T14:20:50.769Z,16.24
2023-03-29T14:21:53.262Z,16.99
2023-03-29T14:22:55.513Z,17.54
2023-03-29T14:24:00.149Z,17.86
2023-03-29T14:25:05.965Z,17.24
2023-03-29T14:26:13.371Z,16.92
2023-03-29T14:27:16.599Z,16.05
2023-03-29T14:28:24.450Z,16.36
2023-03-29T14:29:31.508Z,16.14
2023-03-29T14:30:33.627Z,15.63
2023-03-29T14:31:37.895Z,15.47
2023-03-29T14:32:40.062Z,14.51
2023-03-29T14:33:42.566Z,13.88
2023-03-29T14:34:48.379Z,13.57
2023-03-29T14:35:50.597Z,13.29